Time;durP1;ratioP1;P1;durP2;ratioP2;P2;SDS_P1;SDS_P2;PMS_P1;PMS_P2;Temp;Humidity;BMP_temperature;BMP_pressure;BME280_temperature;BME280_humidity;BME280_pressure;Samples;Min_cycle;Max_cycle;Signal;HPM_P1;HPM_P2
2023/10/30 00:01:35;;;;;;;2.73;2.17;;;;;;;;;;5120988;27;20545;-67
2023/10/30 00:04:04;;;;;;;5.07;2.37;;;;;;;;;;5129157;27;20542;-67
2023/10/30 00:06:30;;;;;;;4.57;2.60;;;;;;;;;;5114176;28;20527;-67
2023/10/30 00:08:58;;;;;;;3.57;2.20;;;;;;;;;;5113124;27;20726;-67
2023/10/30 00:11:25;;;;;;;4.47;2.17;;;;;;;;;;5116923;27;20450;-68
2023/10/30 00:13:51;;;;;;;3.47;2.20;;;;;;;;;;5126151;27;20934;-67
2023/10/30 00:16:17;;;;;;;2.43;2.20;;;;;;;;;;5126593;27;20443;-66
2023/10/30 00:18:45;;;;;;;5.37;2.30;;;;;;;;;;5115079;27;20928;-66
2023/10/30 00:21:14;;;;;;;4.60;1.90;;;;;;;;;;5118136;27;20866;-66
2023/10/30 00:23:40;;;;;;;2.50;2.10;;;;;;;;;;5113378;27;20454;-66
2023/10/30 00:26:06;;;;;;;7.03;2.20;;;;;;;;;;5109609;28;20497;-66
2023/10/30 00:28:34;;;;;;;3.57;1.80;;;;;;;;;;5112785;28;20470;-66
2023/10/30 00:31:00;;;;;;;3.83;2.33;;;;;;;;;;5104459;28;20457;-67
2023/10/30 00:33:27;;;;;;;6.90;2.17;;;;;;;;;;5124048;27;20481;-66
2023/10/30 00:35:53;;;;;;;4.53;2.97;;;;;;;;;;5114539;28;20486;-66
2023/10/30 00:38:21;;;;;;;4.40;2.23;;;;;;;;;;5105513;28;20546;-66
2023/10/30 00:40:48;;;;;;;28.47;3.07;;;;;;;;;;5127265;27;20479;-67
2023/10/30 00:43:14;;;;;;;3.90;2.00;;;;;;;;;;5127376;27;20992;-67
2023/10/30 00:45:40;;;;;;;4.57;2.10;;;;;;;;;;5116372;27;20518;-67
2023/10/30 00:48:07;;;;;;;2.40;1.80;;;;;;;;;;5120640;27;20455;-67
2023/10/30 00:50:33;;;;;;;3.10;1.70;;;;;;;;;;5119655;27;20494;-66
2023/10/30 00:53:00;;;;;;;4.17;1.97;;;;;;;;;;5111682;27;20571;-66
2023/10/30 00:55:28;;;;;;;2.37;1.80;;;;;;;;;;5120932;27;20466;-66
2023/10/30 00:57:54;;;;;;;4.13;1.83;;;;;;;;;;5122325;27;21504;-66
2023/10/30 01:00:21;;;;;;;6.60;2.60;;;;;;;;;;5120177;27;21287;-66
2023/10/30 01:02:47;;;;;;;5.37;2.30;;;;;;;;;;5115409;28;20499;-66
2023/10/30 01:05:14;;;;;;;3.20;2.00;;;;;;;;;;5123056;27;20438;-67
2023/10/30 01:07:40;;;;;;;2.67;2.10;;;;;;;;;;5120131;27;20489;-67
2023/10/30 01:10:07;;;;;;;3.70;1.93;;;;;;;;;;5125047;27;20512;-67
2023/10/30 01:12:34;;;;;;;7.10;2.70;;;;;;;;;;5109065;27;20451;-67
2023/10/30 01:15:01;;;;;;;8.03;2.30;;;;;;;;;;5116179;27;21010;-67
2023/10/30 01:17:27;;;;;;;2.70;2.30;;;;;;;;;;5102235;27;20558;-66
2023/10/30 01:19:53;;;;;;;2.43;1.83;;;;;;;;;;5124946;27;20474;-66
2023/10/30 01:22:20;;;;;;;7.27;2.30;;;;;;;;;;5121422;27;20482;-66
2023/10/30 01:24:46;;;;;;;2.70;2.07;;;;;;;;;;5112253;27;20525;-66
2023/10/30 01:27:13;;;;;;;3.77;2.10;;;;;;;;;;5120907;27;20490;-66
2023/10/30 01:29:40;;;;;;;4.10;2.43;;;;;;;;;;5113547;27;20476;-66
2023/10/30 01:32:07;;;;;;;3.03;1.87;;;;;;;;;;5116260;27;20458;-66
2023/10/30 01:34:33;;;;;;;2.50;1.63;;;;;;;;;;5121838;27;20454;-66
2023/10/30 01:37:00;;;;;;;3.30;2.43;;;;;;;;;;5104896;27;20494;-66
2023/10/30 01:39:26;;;;;;;6.30;3.70;;;;;;;;;;5111329;27;20454;-66
2023/10/30 01:41:53;;;;;;;3.20;2.30;;;;;;;;;;5117311;27;20470;-66
2023/10/30 01:44:19;;;;;;;2.70;2.37;;;;;;;;;;5117102;27;20940;-66
2023/10/30 01:46:47;;;;;;;4.63;2.20;;;;;;;;;;5117877;27;20461;-67
2023/10/30 01:49:13;;;;;;;3.47;2.37;;;;;;;;;;5102489;27;20940;-66
2023/10/30 01:51:40;;;;;;;2.90;1.73;;;;;;;;;;5111513;27;20477;-67
2023/10/30 01:54:07;;;;;;;3.67;1.80;;;;;;;;;;5118523;27;20497;-67
2023/10/30 01:56:34;;;;;;;6.10;2.07;;;;;;;;;;5112718;27;20486;-67
2023/10/30 01:59:01;;;;;;;4.40;1.80;;;;;;;;;;5109233;28;20484;-67
2023/10/30 02:01:27;;;;;;;2.80;1.80;;;;;;;;;;5121328;27;20464;-67
2023/10/30 02:03:56;;;;;;;2.47;2.27;;;;;;;;;;5111619;28;20547;-66
2023/10/30 02:06:23;;;;;;;5.07;1.73;;;;;;;;;;5115972;27;20534;-66
2023/10/30 02:08:49;;;;;;;3.07;2.20;;;;;;;;;;5112006;28;20533;-66
2023/10/30 02:11:15;;;;;;;6.90;2.47;;;;;;;;;;5116651;27;20530;-67
2023/10/30 02:13:42;;;;;;;3.53;2.07;;;;;;;;;;5112208;28;20633;-66
2023/10/30 02:16:08;;;;;;;7.93;2.27;;;;;;;;;;5112937;27;20481;-67
2023/10/30 02:18:35;;;;;;;5.63;2.27;;;;;;;;;;5111269;28;20470;-67
2023/10/30 02:21:06;;;;;;;4.17;2.17;;;;;;;;;;5127127;27;20476;-67
2023/10/30 02:23:32;;;;;;;7.53;2.70;;;;;;;;;;5109640;28;20485;-67
2023/10/30 02:26:00;;;;;;;2.07;1.80;;;;;;;;;;5113439;27;20592;-67
2023/10/30 02:28:26;;;;;;;9.50;2.77;;;;;;;;;;5113030;28;20466;-67
2023/10/30 02:30:53;;;;;;;3.00;2.00;;;;;;;;;;5118867;27;20480;-67
2023/10/30 02:33:19;;;;;;;2.40;2.00;;;;;;;;;;5109168;27;20505;-67
2023/10/30 02:35:46;;;;;;;9.73;2.07;;;;;;;;;;5116654;27;20458;-67
2023/10/30 02:38:13;;;;;;;8.83;2.60;;;;;;;;;;5120253;28;20485;-67
2023/10/30 02:40:39;;;;;;;3.37;2.13;;;;;;;;;;5126499;27;20433;-67
2023/10/30 02:43:07;;;;;;;4.43;2.30;;;;;;;;;;5127517;28;21044;-67
2023/10/30 02:45:33;;;;;;;2.80;2.20;;;;;;;;;;5116320;28;20504;-67
2023/10/30 02:48:00;;;;;;;5.00;2.40;;;;;;;;;;5120535;28;20874;-67
2023/10/30 02:50:26;;;;;;;3.50;2.37;;;;;;;;;;5112870;28;20457;-67
2023/10/30 02:52:52;;;;;;;6.43;2.47;;;;;;;;;;5123060;28;20489;-67
2023/10/30 02:55:19;;;;;;;2.33;2.00;;;;;;;;;;5115600;28;20438;-67
2023/10/30 02:57:45;;;;;;;6.30;2.50;;;;;;;;;;5108162;28;21062;-66
2023/10/30 03:00:14;;;;;;;5.20;2.67;;;;;;;;;;5116590;28;20511;-67
2023/10/30 03:02:43;;;;;;;4.00;2.13;;;;;;;;;;5123359;28;20481;-66
2023/10/30 03:05:09;;;;;;;3.70;2.17;;;;;;;;;;5121829;28;20490;-66
2023/10/30 03:07:36;;;;;;;3.67;2.23;;;;;;;;;;5110221;28;20486;-66
2023/10/30 03:10:02;;;;;;;9.40;2.40;;;;;;;;;;5122493;28;20442;-67
2023/10/30 03:12:28;;;;;;;5.43;2.40;;;;;;;;;;5126244;28;21015;-66
2023/10/30 03:14:55;;;;;;;7.27;1.87;;;;;;;;;;5120666;28;20473;-67
2023/10/30 03:17:23;;;;;;;4.93;2.43;;;;;;;;;;5119436;28;20494;-67
2023/10/30 03:19:49;;;;;;;3.40;2.30;;;;;;;;;;5127368;28;20465;-66
2023/10/30 03:22:15;;;;;;;5.93;2.40;;;;;;;;;;5119636;28;20532;-66
2023/10/30 03:24:42;;;;;;;4.40;3.50;;;;;;;;;;5124497;28;21153;-67
2023/10/30 03:27:08;;;;;;;6.20;2.60;;;;;;;;;;5118239;28;20517;-67
2023/10/30 03:29:35;;;;;;;2.70;2.17;;;;;;;;;;5114155;28;20445;-66
2023/10/30 03:32:01;;;;;;;3.17;2.87;;;;;;;;;;5113037;27;20524;-67
2023/10/30 03:34:29;;;;;;;2.83;2.20;;;;;;;;;;5124804;27;20539;-66
2023/10/30 03:36:55;;;;;;;5.37;2.37;;;;;;;;;;5104851;28;20560;-67
2023/10/30 03:39:22;;;;;;;3.43;2.73;;;;;;;;;;5121749;27;20472;-66
2023/10/30 03:41:50;;;;;;;3.73;2.10;;;;;;;;;;5116363;27;20879;-67
2023/10/30 03:44:19;;;;;;;2.70;2.20;;;;;;;;;;5129454;27;20481;-66
2023/10/30 03:46:45;;;;;;;3.73;2.20;;;;;;;;;;5126925;27;20475;-67
2023/10/30 03:49:12;;;;;;;7.83;2.40;;;;;;;;;;5126508;27;21358;-67
2023/10/30 03:51:40;;;;;;;2.30;2.00;;;;;;;;;;5126948;27;20791;-66
2023/10/30 03:54:06;;;;;;;3.60;2.07;;;;;;;;;;5130434;27;21014;-66
2023/10/30 03:56:33;;;;;;;7.40;2.00;;;;;;;;;;5121749;27;20565;-66
2023/10/30 03:58:59;;;;;;;4.27;2.53;;;;;;;;;;5111995;27;20450;-66
2023/10/30 04:01:25;;;;;;;3.67;2.27;;;;;;;;;;5117789;28;20597;-67
2023/10/30 04:03:52;;;;;;;3.57;2.20;;;;;;;;;;5118397;27;20483;-66
2023/10/30 04:06:18;;;;;;;10.47;2.60;;;;;;;;;;5127791;27;20513;-66
2023/10/30 04:08:46;;;;;;;3.87;2.23;;;;;;;;;;5127186;27;20508;-67
2023/10/30 04:11:13;;;;;;;5.50;2.10;;;;;;;;;;5123509;27;20522;-67
2023/10/30 04:13:40;;;;;;;5.00;2.20;;;;;;;;;;5118210;28;20485;-67
2023/10/30 04:16:07;;;;;;;4.33;2.10;;;;;;;;;;5122287;27;20541;-67
2023/10/30 04:18:34;;;;;;;7.80;3.10;;;;;;;;;;5126826;27;20441;-66
2023/10/30 04:21:01;;;;;;;2.87;2.13;;;;;;;;;;5127454;27;20454;-66
2023/10/30 04:23:27;;;;;;;4.93;2.40;;;;;;;;;;5113241;28;20573;-66
2023/10/30 04:25:56;;;;;;;5.40;2.30;;;;;;;;;;5105662;28;20466;-67
2023/10/30 04:28:23;;;;;;;3.53;2.13;;;;;;;;;;5106195;27;20451;-67
2023/10/30 04:30:49;;;;;;;2.00;1.80;;;;;;;;;;5127007;27;20485;-67
2023/10/30 04:33:16;;;;;;;2.77;2.07;;;;;;;;;;5106429;28;20447;-66
2023/10/30 04:35:43;;;;;;;3.93;2.40;;;;;;;;;;5114894;28;20518;-66
2023/10/30 04:38:09;;;;;;;4.17;2.00;;;;;;;;;;5114709;28;20505;-67
2023/10/30 04:40:35;;;;;;;4.10;2.20;;;;;;;;;;5113575;27;20530;-66
2023/10/30 04:43:03;;;;;;;7.90;2.87;;;;;;;;;;5117496;27;20743;-67
2023/10/30 04:45:29;;;;;;;5.43;2.30;;;;;;;;;;5119950;27;20915;-66
2023/10/30 04:47:56;;;;;;;3.07;1.60;;;;;;;;;;5115419;27;20485;-67
2023/10/30 04:50:22;;;;;;;6.73;2.17;;;;;;;;;;5122300;27;20560;-67
2023/10/30 04:52:49;;;;;;;5.37;3.23;;;;;;;;;;5117684;27;20905;-67
2023/10/30 04:55:16;;;;;;;5.93;2.33;;;;;;;;;;5108329;27;20442;-66
2023/10/30 04:57:42;;;;;;;5.03;2.40;;;;;;;;;;5117447;27;20448;-66
2023/10/30 05:00:11;;;;;;;7.67;2.53;;;;;;;;;;5118693;27;20533;-66
2023/10/30 05:02:37;;;;;;;6.47;2.40;;;;;;;;;;5117132;27;20472;-67
2023/10/30 05:05:04;;;;;;;6.03;2.67;;;;;;;;;;5117733;27;20557;-67
2023/10/30 05:07:29;;;;;;;16.57;3.83;;;;;;;;;;5116788;27;20529;-67
2023/10/30 05:09:56;;;;;;;3.77;2.13;;;;;;;;;;5118332;27;20999;-67
2023/10/30 05:12:22;;;;;;;5.23;2.23;;;;;;;;;;5115584;27;20271;-66
2023/10/30 05:14:48;;;;;;;5.23;2.27;;;;;;;;;;5130076;27;20840;-66
2023/10/30 05:17:16;;;;;;;2.63;2.40;;;;;;;;;;5108761;27;20540;-66
2023/10/30 05:19:43;;;;;;;6.40;2.10;;;;;;;;;;5109048;27;20510;-66
2023/10/30 05:22:09;;;;;;;9.03;2.17;;;;;;;;;;5118639;27;20466;-67
2023/10/30 05:24:36;;;;;;;8.70;2.23;;;;;;;;;;5114118;27;20514;-67
2023/10/30 05:27:02;;;;;;;3.73;2.00;;;;;;;;;;5115755;27;20486;-67
2023/10/30 05:29:28;;;;;;;8.33;2.00;;;;;;;;;;5114702;27;20495;-66
2023/10/30 05:31:55;;;;;;;9.00;2.10;;;;;;;;;;5112652;27;20513;-66
2023/10/30 05:34:24;;;;;;;3.20;1.90;;;;;;;;;;5108574;27;20451;-66
2023/10/30 05:36:51;;;;;;;5.23;2.10;;;;;;;;;;5101059;28;20457;-66
2023/10/30 05:39:17;;;;;;;4.37;1.70;;;;;;;;;;5109436;27;20461;-67
2023/10/30 05:41:44;;;;;;;1.77;1.33;;;;;;;;;;5118867;27;20468;-68
2023/10/30 05:44:10;;;;;;;7.47;2.00;;;;;;;;;;5131755;27;20577;-67
2023/10/30 05:46:36;;;;;;;2.93;1.90;;;;;;;;;;5117690;27;20495;-67
2023/10/30 05:49:03;;;;;;;9.47;2.00;;;;;;;;;;5125925;27;20450;-67
2023/10/30 05:51:31;;;;;;;6.83;2.50;;;;;;;;;;5112360;27;20545;-67
2023/10/30 05:53:58;;;;;;;3.67;2.50;;;;;;;;;;5119909;27;20517;-68
2023/10/30 05:56:24;;;;;;;9.70;3.00;;;;;;;;;;5114575;27;20531;-68
2023/10/30 05:58:51;;;;;;;6.13;2.00;;;;;;;;;;5110281;27;20463;-68
2023/10/30 06:01:17;;;;;;;2.50;1.73;;;;;;;;;;5109802;28;20538;-66
2023/10/30 06:03:44;;;;;;;5.33;2.27;;;;;;;;;;5126786;27;20522;-74
2023/10/30 06:06:10;;;;;;;5.03;1.97;;;;;;;;;;5116650;27;20478;-76
2023/10/30 06:08:38;;;;;;;8.80;2.20;;;;;;;;;;5111173;27;20454;-68
2023/10/30 06:11:04;;;;;;;7.17;2.47;;;;;;;;;;5110182;27;20975;-68
2023/10/30 06:13:31;;;;;;;6.90;2.73;;;;;;;;;;5110974;28;20471;-68
2023/10/30 06:15:57;;;;;;;6.27;2.30;;;;;;;;;;5108481;27;20514;-68
2023/10/30 06:18:24;;;;;;;5.53;2.23;;;;;;;;;;5117577;27;20449;-74
2023/10/30 06:20:50;;;;;;;3.73;2.10;;;;;;;;;;5105696;28;20537;-73
2023/10/30 06:23:16;;;;;;;2.80;1.90;;;;;;;;;;5106606;28;20489;-73
2023/10/30 06:25:45;;;;;;;6.47;2.13;;;;;;;;;;5106991;27;20506;-73
2023/10/30 06:28:12;;;;;;;3.00;1.87;;;;;;;;;;5109237;28;20463;-72
2023/10/30 06:30:39;;;;;;;2.87;1.93;;;;;;;;;;5116120;28;20457;-73
2023/10/30 06:33:08;;;;;;;4.60;2.03;;;;;;;;;;5110543;27;20445;-73
2023/10/30 06:35:34;;;;;;;5.67;2.40;;;;;;;;;;5108416;28;20450;-74
2023/10/30 06:38:01;;;;;;;2.57;1.97;;;;;;;;;;5099245;28;20557;-72
2023/10/30 06:40:27;;;;;;;5.17;2.50;;;;;;;;;;5111303;28;20529;-71
2023/10/30 06:42:55;;;;;;;5.87;2.17;;;;;;;;;;5108240;28;20477;-72
2023/10/30 06:45:21;;;;;;;2.40;1.77;;;;;;;;;;5115638;28;20513;-74
2023/10/30 06:47:51;;;;;;;2.93;1.40;;;;;;;;;;5111057;28;20449;-72
2023/10/30 06:50:17;;;;;;;5.37;2.47;;;;;;;;;;5118430;28;20437;-72
2023/10/30 06:52:44;;;;;;;4.30;3.07;;;;;;;;;;5110970;28;20449;-75
2023/10/30 06:55:10;;;;;;;3.07;1.67;;;;;;;;;;5115691;28;21498;-72
2023/10/30 06:57:37;;;;;;;4.93;2.37;;;;;;;;;;5119334;28;20469;-72
2023/10/30 07:00:06;;;;;;;5.80;1.93;;;;;;;;;;5106778;28;20484;-70
2023/10/30 07:02:32;;;;;;;6.90;2.33;;;;;;;;;;5121707;28;20446;-71
2023/10/30 07:04:59;;;;;;;5.73;2.37;;;;;;;;;;5118283;28;20505;-70
2023/10/30 07:07:25;;;;;;;5.07;2.20;;;;;;;;;;5130489;27;20453;-70
2023/10/30 07:09:52;;;;;;;5.70;1.87;;;;;;;;;;5122385;27;21028;-71
2023/10/30 07:12:18;;;;;;;5.40;1.90;;;;;;;;;;5123700;27;20439;-70
2023/10/30 07:14:45;;;;;;;9.87;2.30;;;;;;;;;;5132178;27;20472;-70
2023/10/30 07:17:12;;;;;;;3.00;2.13;;;;;;;;;;5120352;27;20489;-70
2023/10/30 07:19:39;;;;;;;5.80;2.50;;;;;;;;;;5121850;27;20469;-70
2023/10/30 07:22:06;;;;;;;7.00;2.00;;;;;;;;;;5120503;27;20539;-70
2023/10/30 07:24:32;;;;;;;8.03;2.50;;;;;;;;;;5117154;27;20541;-69
2023/10/30 07:26:58;;;;;;;2.80;1.83;;;;;;;;;;5123006;27;20505;-70
2023/10/30 07:29:26;;;;;;;5.57;2.60;;;;;;;;;;5118745;28;20441;-71
2023/10/30 07:31:55;;;;;;;3.90;2.27;;;;;;;;;;5118063;27;20490;-71
2023/10/30 07:34:22;;;;;;;2.90;1.80;;;;;;;;;;5126376;27;20457;-71
2023/10/30 07:36:49;;;;;;;4.93;2.03;;;;;;;;;;5124884;27;20449;-71
2023/10/30 07:39:15;;;;;;;3.30;2.60;;;;;;;;;;5127028;27;20497;-71
2023/10/30 07:41:42;;;;;;;7.57;2.03;;;;;;;;;;5120798;27;20457;-69
2023/10/30 07:44:09;;;;;;;2.90;2.20;;;;;;;;;;5125749;27;20477;-73
2023/10/30 07:46:35;;;;;;;4.60;2.00;;;;;;;;;;5131821;27;20457;-73
2023/10/30 07:49:03;;;;;;;2.87;1.63;;;;;;;;;;5117063;27;20454;-72
2023/10/30 07:51:30;;;;;;;4.03;1.93;;;;;;;;;;5122415;27;20550;-71
2023/10/30 07:53:57;;;;;;;3.00;2.00;;;;;;;;;;5108364;28;20509;-73
2023/10/30 07:56:23;;;;;;;7.00;2.40;;;;;;;;;;5111985;27;20477;-72
2023/10/30 07:58:50;;;;;;;2.07;1.87;;;;;;;;;;5128600;27;20844;-72
2023/10/30 08:01:18;;;;;;;4.93;3.27;;;;;;;;;;5120940;27;20505;-71
2023/10/30 08:03:45;;;;;;;6.17;2.30;;;;;;;;;;5126641;27;20454;-74
2023/10/30 08:06:12;;;;;;;3.33;1.80;;;;;;;;;;5102657;27;20443;-74
2023/10/30 08:08:40;;;;;;;3.97;2.60;;;;;;;;;;5112384;28;20442;-70
2023/10/30 08:11:06;;;;;;;7.47;3.17;;;;;;;;;;5113418;27;20446;-75
2023/10/30 08:13:33;;;;;;;6.83;3.17;;;;;;;;;;5111091;27;20470;-73
2023/10/30 08:16:00;;;;;;;16.03;4.30;;;;;;;;;;5122009;27;20443;-76
2023/10/30 08:18:27;;;;;;;5.73;3.43;;;;;;;;;;5132586;27;20445;-72
2023/10/30 08:20:53;;;;;;;4.80;3.43;;;;;;;;;;5126356;27;20484;-73
2023/10/30 08:23:20;;;;;;;3.93;3.10;;;;;;;;;;5119045;27;20442;-74
2023/10/30 08:25:48;;;;;;;5.70;3.50;;;;;;;;;;5121566;27;20517;-73
2023/10/30 08:28:15;;;;;;;4.47;3.33;;;;;;;;;;5117641;27;21019;-75
2023/10/30 08:30:42;;;;;;;7.47;3.67;;;;;;;;;;5117908;27;21257;-74
2023/10/30 08:33:09;;;;;;;6.97;4.17;;;;;;;;;;5117230;27;20453;-76
2023/10/30 08:35:35;;;;;;;6.43;3.93;;;;;;;;;;5117495;28;20501;-71
2023/10/30 08:38:03;;;;;;;4.03;3.60;;;;;;;;;;5122761;27;20512;-72
2023/10/30 08:40:32;;;;;;;12.40;4.03;;;;;;;;;;5125133;27;20430;-78
2023/10/30 08:43:00;;;;;;;4.93;3.80;;;;;;;;;;5126144;27;20948;-78
2023/10/30 08:45:27;;;;;;;4.73;3.60;;;;;;;;;;5122919;27;21052;-72
2023/10/30 08:47:53;;;;;;;5.50;3.80;;;;;;;;;;5114786;28;20498;-70
2023/10/30 08:50:19;;;;;;;5.27;3.90;;;;;;;;;;5114604;27;20527;-73
2023/10/30 08:52:46;;;;;;;5.37;3.57;;;;;;;;;;5115328;27;20505;-73
2023/10/30 08:55:12;;;;;;;4.63;4.10;;;;;;;;;;5125431;27;20457;-73
2023/10/30 08:57:39;;;;;;;7.20;4.70;;;;;;;;;;5119262;27;20461;-76
2023/10/30 09:00:08;;;;;;;4.70;4.30;;;;;;;;;;5127177;27;20434;-68
2023/10/30 09:02:34;;;;;;;5.20;4.27;;;;;;;;;;5111950;27;20477;-71
2023/10/30 09:05:01;;;;;;;4.20;3.60;;;;;;;;;;5114548;28;20474;-75
2023/10/30 09:07:27;;;;;;;10.00;4.37;;;;;;;;;;5119119;27;20446;-68
2023/10/30 09:09:54;;;;;;;4.07;3.70;;;;;;;;;;5119059;27;20462;-75
2023/10/30 09:12:20;;;;;;;6.93;4.27;;;;;;;;;;5111268;28;20442;-72
2023/10/30 09:14:47;;;;;;;4.27;3.63;;;;;;;;;;5133337;27;20449;-78
2023/10/30 09:17:15;;;;;;;5.40;3.80;;;;;;;;;;5125738;27;20446;-76
2023/10/30 09:19:42;;;;;;;4.27;3.90;;;;;;;;;;5116175;28;20480;-75
2023/10/30 09:22:08;;;;;;;4.67;4.10;;;;;;;;;;5127491;27;20483;-75
2023/10/30 09:24:34;;;;;;;5.63;4.07;;;;;;;;;;5114324;27;20498;-71
2023/10/30 09:27:03;;;;;;;5.77;3.50;;;;;;;;;;5118888;27;20557;-77
2023/10/30 09:29:30;;;;;;;5.20;3.70;;;;;;;;;;5116414;27;20451;-76
2023/10/30 09:31:59;;;;;;;4.93;3.77;;;;;;;;;;5129482;27;20829;-72
2023/10/30 09:34:27;;;;;;;4.80;3.93;;;;;;;;;;5107375;27;20530;-73
2023/10/30 09:36:53;;;;;;;4.20;3.80;;;;;;;;;;5127481;27;20530;-75
2023/10/30 09:39:20;;;;;;;4.30;3.97;;;;;;;;;;5130223;27;20486;-71
2023/10/30 09:41:47;;;;;;;4.50;3.37;;;;;;;;;;5119967;27;20486;-76
2023/10/30 09:44:14;;;;;;;6.00;3.80;;;;;;;;;;5125687;27;20458;-75
2023/10/30 09:46:41;;;;;;;7.77;3.67;;;;;;;;;;5119117;27;20458;-74
2023/10/30 09:49:08;;;;;;;7.73;3.73;;;;;;;;;;5122311;27;20437;-73
2023/10/30 09:51:37;;;;;;;8.10;3.50;;;;;;;;;;5110865;28;20437;-73
2023/10/30 09:54:04;;;;;;;3.97;3.67;;;;;;;;;;5111476;27;20492;-76
2023/10/30 09:56:32;;;;;;;3.60;3.30;;;;;;;;;;5112870;28;20501;-75
2023/10/30 09:58:59;;;;;;;4.67;3.77;;;;;;;;;;5106463;28;20570;-73
2023/10/30 10:01:27;;;;;;;4.47;3.93;;;;;;;;;;5105255;28;20461;-65
2023/10/30 10:03:53;;;;;;;4.40;3.90;;;;;;;;;;5116806;28;20908;-65
2023/10/30 10:06:20;;;;;;;4.33;3.33;;;;;;;;;;5107533;27;21361;-65
2023/10/30 10:08:48;;;;;;;3.63;3.33;;;;;;;;;;5107867;28;20466;-64
2023/10/30 10:11:15;;;;;;;7.20;3.97;;;;;;;;;;5116444;27;20473;-65
2023/10/30 10:13:48;;;;;;;6.30;4.70;;;;;;;;;;5106381;28;20463;-65
2023/10/30 10:16:14;;;;;;;6.40;3.97;;;;;;;;;;5110679;28;20451;-65
2023/10/30 10:18:41;;;;;;;4.10;3.70;;;;;;;;;;5124131;27;20811;-65
2023/10/30 10:21:09;;;;;;;3.80;3.50;;;;;;;;;;5113956;27;20450;-66
2023/10/30 10:23:36;;;;;;;5.50;3.97;;;;;;;;;;5115115;27;20450;-66
2023/10/30 10:26:05;;;;;;;13.73;4.10;;;;;;;;;;5079125;28;20503;-65
2023/10/30 10:28:32;;;;;;;4.67;3.87;;;;;;;;;;5074164;28;20481;-67
2023/10/30 10:30:58;;;;;;;4.60;3.77;;;;;;;;;;5081267;28;20484;-65
2023/10/30 10:33:27;;;;;;;7.50;3.50;;;;;;;;;;5075332;28;20893;-64
2023/10/30 10:35:54;;;;;;;3.63;3.33;;;;;;;;;;5078369;28;20467;-65
2023/10/30 10:38:21;;;;;;;4.80;3.57;;;;;;;;;;5072763;28;20527;-65
2023/10/30 10:40:47;;;;;;;4.60;3.40;;;;;;;;;;5078034;28;20448;-65
2023/10/30 10:43:18;;;;;;;3.80;3.20;;;;;;;;;;5074788;28;20455;-65
2023/10/30 10:45:45;;;;;;;5.63;3.97;;;;;;;;;;5075109;28;20480;-66
2023/10/30 10:48:12;;;;;;;3.43;3.23;;;;;;;;;;5069355;28;20470;-67
2023/10/30 10:50:38;;;;;;;4.37;3.87;;;;;;;;;;5066504;28;20539;-66
2023/10/30 10:53:06;;;;;;;3.97;3.60;;;;;;;;;;5071625;28;20900;-65
2023/10/30 10:55:34;;;;;;;7.67;3.83;;;;;;;;;;5070944;28;20441;-66
2023/10/30 10:58:07;;;;;;;3.87;3.57;;;;;;;;;;5076204;28;20487;-65
2023/10/30 11:00:37;;;;;;;4.10;3.70;;;;;;;;;;5075525;28;20455;-65
2023/10/30 11:03:05;;;;;;;3.60;3.13;;;;;;;;;;5075693;28;20479;-66
2023/10/30 11:05:32;;;;;;;3.90;3.60;;;;;;;;;;5080309;28;20506;-66
2023/10/30 11:08:00;;;;;;;3.73;3.53;;;;;;;;;;5066525;28;20453;-66
2023/10/30 11:10:31;;;;;;;4.03;3.30;;;;;;;;;;5081951;28;20479;-68
2023/10/30 11:13:03;;;;;;;3.27;3.07;;;;;;;;;;5079714;28;20456;-64
2023/10/30 11:15:33;;;;;;;3.63;3.20;;;;;;;;;;5075550;28;20559;-65
2023/10/30 11:18:20;;;;;;;4.37;4.07;;;;;;;;;;5074712;28;20456;-65
2023/10/30 11:20:47;;;;;;;3.73;3.43;;;;;;;;;;5072509;28;20485;-64
2023/10/30 11:23:13;;;;;;;8.50;3.87;;;;;;;;;;5079353;28;20471;-65
2023/10/30 11:25:53;;;;;;;3.90;3.40;;;;;;;;;;5084734;28;20494;-65
2023/10/30 11:28:19;;;;;;;3.60;3.40;;;;;;;;;;5099410;28;20843;-64
2023/10/30 11:30:49;;;;;;;4.30;4.00;;;;;;;;;;5099553;28;20450;-64
2023/10/30 11:33:20;;;;;;;3.77;3.47;;;;;;;;;;5097871;28;20482;-65
2023/10/30 11:35:51;;;;;;;3.97;3.70;;;;;;;;;;5093170;28;20447;-66
2023/10/30 11:38:18;;;;;;;4.40;3.00;;;;;;;;;;5090419;28;20443;-65
2023/10/30 11:41:00;;;;;;;4.03;3.63;;;;;;;;;;5096698;28;21057;-65
2023/10/30 11:43:29;;;;;;;3.53;2.80;;;;;;;;;;5092493;28;20452;-67
2023/10/30 11:46:01;;;;;;;2.20;2.10;;;;;;;;;;5088381;28;20473;-66
2023/10/30 11:48:30;;;;;;;2.73;2.53;;;;;;;;;;5093350;28;21048;-65
2023/10/30 11:50:57;;;;;;;3.87;3.57;;;;;;;;;;5096831;28;20463;-65
2023/10/30 11:53:26;;;;;;;3.40;3.20;;;;;;;;;;5091440;28;20481;-67
2023/10/30 11:55:52;;;;;;;3.20;2.93;;;;;;;;;;5096187;28;20493;-64
2023/10/30 11:58:19;;;;;;;3.73;3.10;;;;;;;;;;5103081;28;20479;-65
2023/10/30 12:00:46;;;;;;;4.27;3.10;;;;;;;;;;5105474;28;20482;-66
2023/10/30 12:03:13;;;;;;;3.70;3.17;;;;;;;;;;5103833;28;20489;-65
2023/10/30 12:05:41;;;;;;;3.50;3.30;;;;;;;;;;5092338;28;20482;-67
2023/10/30 12:08:09;;;;;;;3.70;3.40;;;;;;;;;;5086890;28;20459;-64
2023/10/30 12:10:37;;;;;;;3.80;3.50;;;;;;;;;;5102780;28;20451;-64
2023/10/30 12:13:04;;;;;;;3.80;3.50;;;;;;;;;;5100622;28;20551;-64
2023/10/30 12:15:30;;;;;;;3.40;3.10;;;;;;;;;;5103008;28;20513;-64
2023/10/30 12:17:57;;;;;;;3.73;3.00;;;;;;;;;;5110245;28;20506;-67
2023/10/30 12:20:23;;;;;;;3.33;3.13;;;;;;;;;;5107240;28;20438;-65
2023/10/30 12:22:54;;;;;;;3.60;3.40;;;;;;;;;;5104075;28;20494;-64
2023/10/30 12:25:22;;;;;;;3.30;3.10;;;;;;;;;;5096500;28;20483;-66
2023/10/30 12:27:51;;;;;;;3.10;2.90;;;;;;;;;;5097602;28;20455;-68
2023/10/30 12:30:18;;;;;;;3.97;3.57;;;;;;;;;;5095138;28;20460;-67
2023/10/30 12:32:53;;;;;;;3.23;2.97;;;;;;;;;;5093431;28;20447;-66
2023/10/30 12:35:19;;;;;;;3.40;3.20;;;;;;;;;;5090698;28;20465;-65
2023/10/30 12:37:45;;;;;;;3.07;2.83;;;;;;;;;;5106321;28;20493;-65
2023/10/30 12:40:14;;;;;;;3.37;3.17;;;;;;;;;;5097401;28;20502;-65
2023/10/30 12:42:40;;;;;;;3.30;3.00;;;;;;;;;;5096264;28;20797;-63
2023/10/30 12:45:07;;;;;;;3.40;3.20;;;;;;;;;;5099940;28;20800;-63
2023/10/30 12:47:34;;;;;;;2.73;2.63;;;;;;;;;;5093678;28;20693;-63
2023/10/30 12:50:01;;;;;;;3.00;2.80;;;;;;;;;;5099139;28;20511;-64
2023/10/30 12:52:27;;;;;;;3.13;2.70;;;;;;;;;;5097442;28;20500;-64
2023/10/30 12:54:54;;;;;;;3.10;2.90;;;;;;;;;;5091765;28;20517;-68
2023/10/30 12:57:22;;;;;;;3.10;2.90;;;;;;;;;;5096876;28;20504;-68
2023/10/30 12:59:48;;;;;;;3.77;3.40;;;;;;;;;;5104925;28;20920;-70
2023/10/30 13:02:15;;;;;;;3.10;2.90;;;;;;;;;;5097956;28;20472;-69
2023/10/30 13:04:41;;;;;;;3.80;3.50;;;;;;;;;;5094173;28;20481;-70
2023/10/30 13:07:08;;;;;;;3.40;3.20;;;;;;;;;;5099219;28;20502;-70
2023/10/30 13:09:34;;;;;;;3.30;3.10;;;;;;;;;;5097093;28;20459;-69
2023/10/30 13:12:01;;;;;;;2.90;2.70;;;;;;;;;;5102788;28;20470;-71
2023/10/30 13:14:29;;;;;;;3.30;3.10;;;;;;;;;;5101723;28;20454;-69
2023/10/30 13:16:55;;;;;;;3.00;2.80;;;;;;;;;;5090908;28;20442;-69
2023/10/30 13:19:22;;;;;;;2.70;2.50;;;;;;;;;;5099488;28;20443;-68
2023/10/30 13:21:49;;;;;;;3.00;2.20;;;;;;;;;;5103650;28;20462;-69
2023/10/30 13:24:15;;;;;;;1.90;1.80;;;;;;;;;;5098963;28;20478;-70
2023/10/30 13:26:42;;;;;;;2.00;1.90;;;;;;;;;;5099916;28;20482;-69
2023/10/30 13:29:09;;;;;;;3.17;3.00;;;;;;;;;;5099853;28;20485;-69
2023/10/30 13:31:37;;;;;;;3.50;3.30;;;;;;;;;;5094333;28;20454;-69
2023/10/30 13:34:03;;;;;;;3.30;3.10;;;;;;;;;;5103906;28;20451;-69
2023/10/30 13:36:31;;;;;;;3.17;2.97;;;;;;;;;;5091090;28;20507;-69
2023/10/30 13:38:57;;;;;;;3.27;2.93;;;;;;;;;;5093405;28;20454;-73
2023/10/30 13:41:24;;;;;;;3.43;3.23;;;;;;;;;;5097124;28;20447;-68
2023/10/30 13:43:51;;;;;;;3.30;3.10;;;;;;;;;;5094580;28;20445;-67
2023/10/30 13:46:17;;;;;;;3.20;3.00;;;;;;;;;;5099345;28;20473;-67
2023/10/30 13:48:46;;;;;;;3.30;3.10;;;;;;;;;;5103970;28;20510;-67
2023/10/30 13:51:12;;;;;;;2.80;2.70;;;;;;;;;;5092469;28;20503;-66
2023/10/30 13:53:38;;;;;;;3.50;3.23;;;;;;;;;;5097335;28;20454;-67
2023/10/30 13:56:05;;;;;;;3.03;2.83;;;;;;;;;;5104080;28;20472;-68
2023/10/30 13:58:32;;;;;;;3.47;3.17;;;;;;;;;;5090845;28;20456;-66
2023/10/30 14:00:58;;;;;;;3.30;3.10;;;;;;;;;;5088146;28;20451;-66
2023/10/30 14:03:25;;;;;;;2.73;2.63;;;;;;;;;;5102042;28;20534;-65
2023/10/30 14:05:53;;;;;;;3.33;3.00;;;;;;;;;;5092753;28;20440;-66
2023/10/30 14:08:19;;;;;;;3.27;3.07;;;;;;;;;;5089682;28;21327;-62
2023/10/30 14:10:45;;;;;;;3.03;2.93;;;;;;;;;;5096430;28;20455;-63
2023/10/30 14:13:12;;;;;;;2.50;2.40;;;;;;;;;;5086312;28;20462;-63
2023/10/30 14:15:38;;;;;;;3.20;3.00;;;;;;;;;;5108377;28;20439;-64
2023/10/30 14:18:05;;;;;;;2.63;2.43;;;;;;;;;;5091322;28;20455;-68
2023/10/30 14:20:32;;;;;;;4.10;2.90;;;;;;;;;;5096374;28;20457;-64
2023/10/30 14:23:00;;;;;;;2.87;2.73;;;;;;;;;;5096826;28;20462;-63
2023/10/30 14:25:26;;;;;;;3.00;2.90;;;;;;;;;;5095616;28;20508;-66
2023/10/30 14:27:53;;;;;;;3.10;2.90;;;;;;;;;;5088776;28;20487;-66
2023/10/30 14:30:19;;;;;;;2.97;2.80;;;;;;;;;;5100241;28;20435;-65
2023/10/30 14:32:45;;;;;;;2.40;2.20;;;;;;;;;;5094684;28;20496;-64
2023/10/30 14:35:12;;;;;;;2.90;2.70;;;;;;;;;;5097003;28;20446;-63
2023/10/30 14:37:39;;;;;;;3.23;3.03;;;;;;;;;;5100190;28;21017;-64
2023/10/30 14:40:08;;;;;;;2.80;2.60;;;;;;;;;;5099208;28;20515;-65
2023/10/30 14:42:34;;;;;;;2.90;2.70;;;;;;;;;;5100827;28;20482;-65